Time;durP1;ratioP1;P1;durP2;ratioP2;P2;SDS_P1;SDS_P2;PMS_P1;PMS_P2;Temp;Humidity;BMP_temperature;BMP_pressure;BME280_temperature;BME280_humidity;BME280_pressure;Samples;Min_cycle;Max_cycle;Signal;HPM_P1;HPM_P2
2023/03/19 00:00:10;;;;;;;5.78;5.20;;;19.70;50.60;;;;;;5009494;28;20186;-69
2023/03/19 00:02:36;;;;;;;6.20;5.32;;;19.70;50.60;;;;;;5014590;28;20207;-70
2023/03/19 00:05:04;;;;;;;5.80;4.75;;;19.60;50.50;;;;;;5031093;28;20277;-69
2023/03/19 00:07:30;;;;;;;5.18;4.72;;;19.70;50.60;;;;;;5030852;28;20194;-68
2023/03/19 00:09:56;;;;;;;7.05;5.60;;;19.60;50.50;;;;;;5026283;28;20192;-69
2023/03/19 00:12:22;;;;;;;5.97;5.22;;;19.60;50.50;;;;;;5018516;28;20195;-69
2023/03/19 00:14:48;;;;;;;5.40;4.90;;;19.60;50.50;;;;;;5017576;28;20274;-69
2023/03/19 00:17:13;;;;;;;4.90;4.40;;;19.60;50.50;;;;;;5014097;28;20278;-69
2023/03/19 00:19:39;;;;;;;5.40;4.90;;;19.60;50.50;;;;;;5014292;28;20230;-70
2023/03/19 00:22:06;;;;;;;5.60;4.55;;;19.60;50.50;;;;;;5038516;28;20222;-69
2023/03/19 00:24:32;;;;;;;6.13;4.68;;;19.60;50.50;;;;;;5030624;28;20187;-69
2023/03/19 00:26:57;;;;;;;5.97;4.40;;;19.60;50.50;;;;;;5010893;28;20179;-70
2023/03/19 00:29:24;;;;;;;5.18;4.40;;;19.60;50.50;;;;;;5007814;28;20214;-69
2023/03/19 00:31:50;;;;;;;5.28;4.70;;;19.60;50.50;;;;;;5047402;28;20183;-69
2023/03/19 00:34:19;;;;;;;5.20;4.70;;;19.60;50.50;;;;;;5022855;28;20199;-70
2023/03/19 00:36:46;;;;;;;5.40;4.90;;;19.60;50.60;;;;;;5028528;28;20191;-69
2023/03/19 00:39:12;;;;;;;6.78;4.40;;;19.60;50.60;;;;;;5026777;28;20221;-69
2023/03/19 00:41:38;;;;;;;5.43;4.88;;;19.60;50.60;;;;;;4995917;28;20204;-69
2023/03/19 00:44:05;;;;;;;5.45;4.68;;;19.60;50.60;;;;;;5029230;28;20191;-68
2023/03/19 00:46:31;;;;;;;4.93;4.53;;;19.60;50.60;;;;;;5046931;28;20197;-68
2023/03/19 00:48:57;;;;;;;5.72;4.80;;;19.60;50.60;;;;;;5029914;28;20594;-69
2023/03/19 00:51:24;;;;;;;5.20;4.70;;;19.60;50.60;;;;;;5014484;28;20190;-69
2023/03/19 00:53:50;;;;;;;5.72;5.05;;;19.60;50.60;;;;;;5030206;28;20179;-69
2023/03/19 00:56:17;;;;;;;6.45;4.63;;;19.60;50.60;;;;;;5014011;28;20194;-68
2023/03/19 00:58:45;;;;;;;5.90;4.75;;;19.60;50.60;;;;;;5030008;28;20285;-69
2023/03/19 01:01:15;;;;;;;4.82;4.38;;;19.60;50.70;;;;;;5024055;28;20188;-69
2023/03/19 01:03:43;;;;;;;4.88;4.47;;;19.60;50.60;;;;;;5013985;28;20203;-69
2023/03/19 01:06:11;;;;;;;6.22;4.57;;;19.60;50.60;;;;;;5009926;28;20191;-69
2023/03/19 01:08:36;;;;;;;5.25;4.78;;;19.60;50.60;;;;;;5034350;28;20222;-68
2023/03/19 01:11:09;;;;;;;4.20;3.80;;;19.60;50.60;;;;;;5025677;28;20176;-69
2023/03/19 01:13:36;;;;;;;5.47;4.35;;;19.60;50.60;;;;;;5016005;28;20534;-69
2023/03/19 01:16:02;;;;;;;4.40;4.00;;;19.60;50.70;;;;;;5050821;28;20191;-69
2023/03/19 01:18:28;;;;;;;5.00;4.50;;;19.60;50.70;;;;;;5033239;28;20207;-69
2023/03/19 01:20:54;;;;;;;4.65;4.25;;;19.60;50.60;;;;;;5015619;28;20188;-69
2023/03/19 01:23:21;;;;;;;5.25;4.45;;;19.60;50.70;;;;;;4997958;28;20258;-69
2023/03/19 01:25:47;;;;;;;4.18;3.88;;;19.60;50.70;;;;;;5000847;28;20187;-69
2023/03/19 01:28:12;;;;;;;4.45;4.05;;;19.60;50.70;;;;;;5033643;28;20225;-69
2023/03/19 01:30:39;;;;;;;4.82;4.32;;;19.60;50.70;;;;;;5034047;28;20265;-69
2023/03/19 01:33:11;;;;;;;4.68;4.13;;;19.60;50.70;;;;;;5027818;28;20192;-68
2023/03/19 01:35:58;;;;;;;4.38;3.97;;;19.60;50.70;;;;;;5026558;28;20257;-69
2023/03/19 01:38:27;;;;;;;5.10;3.67;;;19.60;50.70;;;;;;5033327;28;20219;-69
2023/03/19 01:40:59;;;;;;;5.38;4.40;;;19.60;50.80;;;;;;5029161;28;20191;-69
2023/03/19 01:43:28;;;;;;;4.43;4.03;;;19.60;50.80;;;;;;5013818;28;20214;-69
2023/03/19 01:46:37;;;;;;;5.10;4.20;;;19.60;50.80;;;;;;5016726;28;20191;-69
2023/03/19 01:49:39;;;;;;;4.32;3.92;;;19.60;50.80;;;;;;4952076;28;20279;-68
2023/03/19 01:52:16;;;;;;;4.57;3.90;;;19.60;50.90;;;;;;5033680;28;20186;-69
2023/03/19 01:54:59;;;;;;;4.63;4.22;;;19.50;50.80;;;;;;5018971;28;20241;-68
2023/03/19 01:58:01;;;;;;;4.28;3.88;;;19.60;50.80;;;;;;4984859;28;20254;-69
2023/03/19 02:00:46;;;;;;;4.38;3.97;;;19.50;50.80;;;;;;5028663;28;20202;-69
2023/03/19 02:03:12;;;;;;;4.57;4.18;;;19.50;50.80;;;;;;5033323;28;20249;-69
2023/03/19 02:05:59;;;;;;;4.88;4.20;;;19.60;51.00;;;;;;5025328;28;20180;-69
2023/03/19 02:08:28;;;;;;;6.00;3.95;;;19.60;51.00;;;;;;5016596;28;20203;-70
2023/03/19 02:10:58;;;;;;;4.75;3.85;;;19.60;51.00;;;;;;5025306;28;20183;-69
2023/03/19 02:13:26;;;;;;;4.28;3.75;;;19.60;50.90;;;;;;5016614;28;20194;-69
2023/03/19 02:15:53;;;;;;;4.07;3.67;;;19.60;51.00;;;;;;5032711;28;20187;-69
2023/03/19 02:18:20;;;;;;;4.60;4.20;;;19.60;50.90;;;;;;5032657;28;20245;-69
2023/03/19 02:21:04;;;;;;;4.57;4.13;;;19.60;51.00;;;;;;5028769;28;20240;-69
2023/03/19 02:23:55;;;;;;;4.63;4.07;;;19.50;50.90;;;;;;5049486;28;20611;-69
2023/03/19 02:26:40;;;;;;;4.82;4.25;;;19.60;51.00;;;;;;5041956;28;20195;-69
2023/03/19 02:29:06;;;;;;;4.53;4.03;;;19.60;51.00;;;;;;4996752;28;20211;-70
2023/03/19 02:31:35;;;;;;;4.80;3.80;;;19.50;50.90;;;;;;5013975;28;20576;-69
2023/03/19 02:34:12;;;;;;;4.35;3.75;;;19.60;51.00;;;;;;5032684;28;20175;-70
2023/03/19 02:36:45;;;;;;;4.28;3.80;;;19.50;50.90;;;;;;5000166;28;20677;-69
2023/03/19 02:39:27;;;;;;;4.40;4.00;;;19.50;50.90;;;;;;5048973;28;20225;-71
2023/03/19 02:41:56;;;;;;;4.40;3.97;;;19.50;50.90;;;;;;5007957;28;20207;-69
2023/03/19 02:44:25;;;;;;;4.55;4.05;;;19.50;50.90;;;;;;5024846;28;20285;-69
2023/03/19 02:46:51;;;;;;;4.20;3.80;;;19.50;50.90;;;;;;5020479;28;20721;-69
2023/03/19 02:49:17;;;;;;;4.57;3.95;;;19.50;50.90;;;;;;5023881;28;20212;-69
2023/03/19 02:51:43;;;;;;;4.63;4.18;;;19.50;50.90;;;;;;5030510;28;20211;-70
2023/03/19 02:54:09;;;;;;;4.65;4.05;;;19.50;50.90;;;;;;5009653;28;20654;-70
2023/03/19 02:56:35;;;;;;;3.90;3.60;;;19.50;50.90;;;;;;5048852;28;20182;-69
2023/03/19 02:59:01;;;;;;;4.38;3.97;;;19.50;50.90;;;;;;5048897;28;20214;-69
2023/03/19 03:01:27;;;;;;;4.47;3.58;;;19.50;50.90;;;;;;5049167;28;20187;-69
2023/03/19 03:03:53;;;;;;;4.80;3.35;;;19.50;50.90;;;;;;5048657;28;20191;-69
2023/03/19 03:06:18;;;;;;;3.67;3.38;;;19.50;50.90;;;;;;5015132;28;20183;-69
2023/03/19 03:08:45;;;;;;;4.00;3.60;;;19.50;50.90;;;;;;5024356;28;20211;-69
2023/03/19 03:11:11;;;;;;;4.18;3.78;;;19.50;50.90;;;;;;5032051;28;20274;-69
2023/03/19 03:13:36;;;;;;;4.63;3.58;;;19.50;50.90;;;;;;5032886;28;20187;-69
2023/03/19 03:16:02;;;;;;;4.88;3.67;;;19.50;50.90;;;;;;5032194;28;20183;-70
2023/03/19 03:18:28;;;;;;;3.75;3.40;;;19.50;50.90;;;;;;5015351;28;20243;-69
2023/03/19 03:20:54;;;;;;;3.85;3.55;;;19.50;50.90;;;;;;5015287;28;20195;-69
2023/03/19 03:23:20;;;;;;;3.50;3.20;;;19.50;50.90;;;;;;5012442;28;20307;-69
2023/03/19 03:25:50;;;;;;;3.50;3.20;;;19.50;50.90;;;;;;5044650;28;20188;-69
2023/03/19 03:28:18;;;;;;;3.55;3.25;;;19.50;50.90;;;;;;5027011;28;20226;-68
2023/03/19 03:30:45;;;;;;;3.47;3.17;;;19.50;50.90;;;;;;5031912;28;20199;-69
2023/03/19 03:33:11;;;;;;;3.17;2.88;;;19.50;50.90;;;;;;5038136;28;20187;-69
2023/03/19 03:35:37;;;;;;;4.70;3.67;;;19.50;50.90;;;;;;4998104;28;20196;-69
2023/03/19 03:38:05;;;;;;;3.95;3.17;;;19.50;50.90;;;;;;4999809;28;20221;-69
2023/03/19 03:40:32;;;;;;;3.85;3.42;;;19.50;50.90;;;;;;5023178;28;20191;-69
2023/03/19 03:42:58;;;;;;;3.75;3.45;;;19.50;50.90;;;;;;5006755;28;20331;-69
2023/03/19 03:45:24;;;;;;;3.95;3.20;;;19.50;50.90;;;;;;5023550;28;20241;-69
2023/03/19 03:47:51;;;;;;;3.40;3.10;;;19.50;50.90;;;;;;5020471;28;20222;-69
2023/03/19 03:50:17;;;;;;;3.45;3.15;;;19.50;50.90;;;;;;5025341;28;20215;-69
2023/03/19 03:52:43;;;;;;;3.35;3.05;;;19.50;50.90;;;;;;5021516;28;20195;-69
2023/03/19 03:55:09;;;;;;;3.15;2.83;;;19.50;50.90;;;;;;5024430;28;20187;-69
2023/03/19 03:57:36;;;;;;;3.08;2.80;;;19.50;50.90;;;;;;5014301;28;20227;-69
2023/03/19 04:00:03;;;;;;;2.92;2.72;;;19.50;50.90;;;;;;5022722;28;20219;-69
2023/03/19 04:02:38;;;;;;;4.10;2.92;;;19.50;50.90;;;;;;5031409;28;20223;-69
2023/03/19 04:05:05;;;;;;;4.57;3.20;;;19.50;50.90;;;;;;5002796;28;20196;-69
2023/03/19 04:07:31;;;;;;;3.35;3.05;;;19.50;50.90;;;;;;5020282;28;20238;-69
2023/03/19 04:09:58;;;;;;;3.40;3.10;;;19.50;50.90;;;;;;5019280;28;20196;-69
2023/03/19 04:12:24;;;;;;;3.40;3.10;;;19.40;50.80;;;;;;5004728;28;20187;-69
2023/03/19 04:14:50;;;;;;;3.30;3.00;;;19.50;50.90;;;;;;5004104;28;20191;-69
2023/03/19 04:17:16;;;;;;;3.30;3.00;;;19.50;50.90;;;;;;5010826;28;20271;-69
2023/03/19 04:19:42;;;;;;;3.00;2.70;;;19.50;50.90;;;;;;5003503;28;20212;-69
2023/03/19 04:22:08;;;;;;;3.40;3.10;;;19.50;50.90;;;;;;5025696;28;20246;-68
2023/03/19 04:24:35;;;;;;;3.10;2.83;;;19.50;50.90;;;;;;5019122;28;20223;-69
2023/03/19 04:27:02;;;;;;;3.30;2.95;;;19.50;50.90;;;;;;5014527;28;20206;-68
2023/03/19 04:29:28;;;;;;;3.17;2.80;;;19.50;51.00;;;;;;4998781;28;20221;-69
2023/03/19 04:31:56;;;;;;;3.10;2.80;;;19.50;51.60;;;;;;5021668;28;20196;-68
2023/03/19 04:34:22;;;;;;;2.58;2.38;;;19.50;50.90;;;;;;5027223;28;20199;-69
2023/03/19 04:36:48;;;;;;;3.22;2.85;;;19.40;50.80;;;;;;5022274;28;20196;-70
2023/03/19 04:39:14;;;;;;;2.97;2.60;;;19.50;51.00;;;;;;5031258;22;20228;-70
2023/03/19 04:41:40;;;;;;;3.35;2.80;;;19.40;50.90;;;;;;4992058;28;20189;-69
2023/03/19 04:44:22;;;;;;;2.50;2.30;;;19.40;51.00;;;;;;4994102;28;20177;-69
2023/03/19 04:46:48;;;;;;;2.90;2.45;;;19.50;51.10;;;;;;4992040;28;20193;-70
2023/03/19 04:49:15;;;;;;;3.55;2.65;;;19.50;51.10;;;;;;4991322;28;20211;-70
2023/03/19 04:51:41;;;;;;;3.80;2.70;;;19.40;51.00;;;;;;5008329;28;20181;-70
2023/03/19 04:54:07;;;;;;;2.63;2.40;;;19.40;51.10;;;;;;4991851;28;20262;-69
2023/03/19 04:56:33;;;;;;;2.65;2.45;;;19.50;51.20;;;;;;5007647;28;20275;-69
2023/03/19 04:58:59;;;;;;;2.67;2.42;;;19.40;51.10;;;;;;4991601;28;20639;-70
2023/03/19 05:01:26;;;;;;;2.50;2.30;;;19.40;51.10;;;;;;5007844;28;20181;-70
2023/03/19 05:04:11;;;;;;;2.72;2.53;;;19.50;51.20;;;;;;4998625;28;20188;-69
2023/03/19 05:06:37;;;;;;;3.67;2.72;;;19.40;51.10;;;;;;5007848;28;20192;-70
2023/03/19 05:09:06;;;;;;;2.88;2.65;;;19.40;51.20;;;;;;4991002;28;20300;-69
2023/03/19 05:11:32;;;;;;;3.00;2.70;;;19.40;51.20;;;;;;5007015;28;20253;-69
2023/03/19 05:14:02;;;;;;;2.13;1.98;;;19.40;51.20;;;;;;4990839;28;20192;-69
2023/03/19 05:16:37;;;;;;;2.70;2.50;;;19.40;51.20;;;;;;4990745;28;20283;-69
2023/03/19 05:19:03;;;;;;;2.65;2.40;;;19.50;51.20;;;;;;5006857;28;20340;-69
2023/03/19 05:21:31;;;;;;;2.63;2.05;;;19.40;51.20;;;;;;4991006;28;20270;-69
2023/03/19 05:23:57;;;;;;;2.67;2.20;;;19.50;51.30;;;;;;5006710;28;20208;-69
2023/03/19 05:26:24;;;;;;;2.30;2.03;;;19.40;51.20;;;;;;4990799;28;20625;-69
2023/03/19 05:29:16;;;;;;;2.40;2.20;;;19.40;51.20;;;;;;4990451;28;20658;-72
2023/03/19 05:32:01;;;;;;;3.05;2.17;;;19.40;51.30;;;;;;5007017;28;20200;-69
2023/03/19 05:34:28;;;;;;;3.40;2.40;;;19.40;51.20;;;;;;4990738;28;20747;-69
2023/03/19 05:36:55;;;;;;;2.70;2.38;;;19.40;51.20;;;;;;5006965;28;20189;-69
2023/03/19 05:39:20;;;;;;;2.10;2.00;;;19.40;51.20;;;;;;4990743;28;20219;-70
2023/03/19 05:41:47;;;;;;;2.53;2.33;;;19.40;51.30;;;;;;4988408;28;20190;-69
2023/03/19 05:44:18;;;;;;;2.53;2.30;;;19.40;51.30;;;;;;4990665;28;20272;-69
2023/03/19 05:47:07;;;;;;;2.45;2.25;;;19.40;51.30;;;;;;4983098;28;20228;-69
2023/03/19 05:49:36;;;;;;;2.28;2.08;;;19.40;51.30;;;;;;4991127;28;20291;-69
2023/03/19 05:52:03;;;;;;;2.40;2.20;;;19.40;51.30;;;;;;4977914;28;20454;-69
2023/03/19 05:54:30;;;;;;;2.50;2.30;;;19.40;51.30;;;;;;4994155;28;20181;-69
2023/03/19 05:57:00;;;;;;;2.40;2.20;;;19.40;51.30;;;;;;4993507;28;20189;-69
2023/03/19 05:59:36;;;;;;;2.42;2.17;;;19.40;51.40;;;;;;4993930;28;20240;-70
2023/03/19 06:02:21;;;;;;;2.63;2.42;;;19.40;51.30;;;;;;4994196;28;20208;-69
2023/03/19 06:04:48;;;;;;;2.20;1.83;;;19.40;51.40;;;;;;4993917;28;20209;-69
2023/03/19 06:07:17;;;;;;;2.50;2.20;;;19.40;51.30;;;;;;4993660;28;20559;-69
2023/03/19 06:09:42;;;;;;;2.75;2.30;;;19.40;51.40;;;;;;5009838;28;20215;-69
2023/03/19 06:12:10;;;;;;;2.55;2.35;;;19.40;52.00;;;;;;4993604;28;20206;-69
2023/03/19 06:14:42;;;;;;;3.10;2.30;;;19.40;51.40;;;;;;4991657;28;20205;-69
2023/03/19 06:17:28;;;;;;;2.15;1.95;;;19.40;51.40;;;;;;4998072;28;20713;-69
2023/03/19 06:19:57;;;;;;;2.42;2.22;;;19.40;51.40;;;;;;4977647;28;20209;-69
2023/03/19 06:22:23;;;;;;;2.47;2.28;;;19.40;51.40;;;;;;4994727;28;20299;-69
2023/03/19 06:24:49;;;;;;;2.38;2.17;;;19.40;51.40;;;;;;4993260;28;20193;-69
2023/03/19 06:27:15;;;;;;;2.25;2.05;;;19.40;51.40;;;;;;5002900;28;20181;-69
2023/03/19 06:29:40;;;;;;;2.33;1.98;;;19.40;51.40;;;;;;4993559;28;20201;-69
2023/03/19 06:32:17;;;;;;;2.15;2.05;;;19.40;51.40;;;;;;5009839;28;20198;-69
2023/03/19 06:34:43;;;;;;;1.88;1.75;;;19.30;51.40;;;;;;4993480;28;20336;-69
2023/03/19 06:37:08;;;;;;;2.40;2.20;;;19.40;51.40;;;;;;4993130;28;20565;-69
2023/03/19 06:39:34;;;;;;;2.42;2.20;;;19.40;51.40;;;;;;5009523;28;20220;-69
2023/03/19 06:42:00;;;;;;;2.53;1.88;;;19.40;51.50;;;;;;4992868;28;20221;-69
2023/03/19 06:44:26;;;;;;;3.70;2.05;;;19.30;51.40;;;;;;5009550;28;20177;-69
2023/03/19 06:46:52;;;;;;;1.92;1.83;;;19.30;51.40;;;;;;5009738;28;20691;-69
2023/03/19 06:49:18;;;;;;;2.10;1.90;;;19.30;51.40;;;;;;5009132;28;20200;-69
2023/03/19 06:51:43;;;;;;;2.17;1.98;;;19.40;51.40;;;;;;5009270;28;20216;-69
2023/03/19 06:54:09;;;;;;;2.85;2.30;;;19.30;51.40;;;;;;5001482;28;20191;-69
2023/03/19 06:56:35;;;;;;;2.22;2.03;;;19.30;51.40;;;;;;4994382;28;20293;-69
2023/03/19 06:59:01;;;;;;;2.40;2.20;;;19.40;51.40;;;;;;4992670;28;20308;-69
2023/03/19 07:01:27;;;;;;;2.72;2.30;;;19.30;51.50;;;;;;4989960;28;20204;-69
2023/03/19 07:03:54;;;;;;;1.77;1.67;;;19.40;51.50;;;;;;4996545;28;20457;-69
2023/03/19 07:06:19;;;;;;;2.20;2.00;;;19.40;51.50;;;;;;5003645;28;20181;-69
2023/03/19 07:08:45;;;;;;;2.00;1.80;;;19.30;51.40;;;;;;5003355;28;20211;-69
2023/03/19 07:11:12;;;;;;;1.85;1.75;;;19.40;51.50;;;;;;5003219;28;20185;-69
2023/03/19 07:13:38;;;;;;;1.70;1.60;;;19.30;51.40;;;;;;4987447;28;20196;-69
2023/03/19 07:16:05;;;;;;;1.85;1.70;;;19.40;51.50;;;;;;5002397;28;20192;-69
2023/03/19 07:18:30;;;;;;;2.25;1.98;;;19.30;51.40;;;;;;5000336;28;20326;-69
2023/03/19 07:20:56;;;;;;;1.77;1.63;;;19.40;51.50;;;;;;4986433;28;20276;-69
2023/03/19 07:23:22;;;;;;;1.83;1.73;;;19.30;51.40;;;;;;4986073;28;20217;-69
2023/03/19 07:25:48;;;;;;;2.10;1.60;;;19.40;51.50;;;;;;4983698;28;20181;-69
2023/03/19 07:28:14;;;;;;;2.15;1.95;;;19.40;51.60;;;;;;4986457;28;20193;-69
2023/03/19 07:30:40;;;;;;;2.63;1.77;;;19.40;51.60;;;;;;4986736;28;20196;-69
2023/03/19 07:33:07;;;;;;;1.95;1.85;;;19.40;51.60;;;;;;5002310;28;20200;-69
2023/03/19 07:35:34;;;;;;;1.92;1.73;;;19.40;51.60;;;;;;4986239;28;20657;-69
2023/03/19 07:38:01;;;;;;;1.90;1.80;;;19.40;51.50;;;;;;5002219;28;20190;-70
2023/03/19 07:40:27;;;;;;;2.22;1.98;;;19.40;51.60;;;;;;4999681;28;20197;-69
2023/03/19 07:42:53;;;;;;;1.85;1.75;;;19.40;51.50;;;;;;4997428;28;20580;-69
2023/03/19 07:45:19;;;;;;;2.30;2.10;;;19.50;51.60;;;;;;5001261;28;20196;-69
2023/03/19 07:47:46;;;;;;;1.70;1.60;;;19.40;51.50;;;;;;4983378;28;20208;-69
2023/03/19 07:50:12;;;;;;;1.80;1.70;;;19.40;51.50;;;;;;4999771;28;20196;-69
2023/03/19 07:52:37;;;;;;;1.83;1.73;;;19.40;51.50;;;;;;4984026;28;20203;-68
2023/03/19 07:55:04;;;;;;;2.00;1.80;;;19.40;51.50;;;;;;5002664;28;20197;-69
2023/03/19 07:57:31;;;;;;;1.95;1.80;;;19.40;51.50;;;;;;4986641;28;20275;-69
2023/03/19 07:59:57;;;;;;;2.22;2.03;;;19.40;51.50;;;;;;4985078;28;20209;-69
2023/03/19 08:02:23;;;;;;;2.20;2.00;;;19.40;51.50;;;;;;4982965;28;20217;-70
2023/03/19 08:04:50;;;;;;;1.55;1.45;;;19.50;51.60;;;;;;4989584;28;20198;-70
2023/03/19 08:07:15;;;;;;;2.40;1.80;;;19.40;51.50;;;;;;4991590;28;20232;-69
2023/03/19 08:09:41;;;;;;;1.65;1.55;;;19.40;51.50;;;;;;5008140;28;20217;-70
2023/03/19 08:12:07;;;;;;;2.33;1.60;;;19.40;51.50;;;;;;5007415;28;20193;-70
2023/03/19 08:14:33;;;;;;;1.85;1.60;;;19.40;51.60;;;;;;5008385;28;20255;-71
2023/03/19 08:17:00;;;;;;;2.65;1.92;;;19.40;51.60;;;;;;4991860;28;20193;-70
2023/03/19 08:19:25;;;;;;;1.60;1.50;;;19.40;51.60;;;;;;4991269;28;20263;-69
2023/03/19 08:21:51;;;;;;;1.58;1.48;;;19.50;51.60;;;;;;5002472;28;20197;-69
2023/03/19 08:24:18;;;;;;;1.55;1.45;;;19.50;51.60;;;;;;4986489;28;20184;-71
2023/03/19 08:26:44;;;;;;;2.40;1.73;;;19.50;51.60;;;;;;4992709;28;20196;-70
2023/03/19 08:29:11;;;;;;;1.67;1.58;;;19.50;51.60;;;;;;4990910;28;20208;-69
2023/03/19 08:31:36;;;;;;;2.03;1.70;;;19.50;51.60;;;;;;5008310;28;20268;-69
2023/03/19 08:34:03;;;;;;;1.67;1.58;;;19.50;51.60;;;;;;5007989;28;20281;-69
2023/03/19 08:36:30;;;;;;;1.30;1.20;;;19.50;51.60;;;;;;4997086;28;20192;-69
2023/03/19 08:38:57;;;;;;;1.67;1.58;;;19.50;51.60;;;;;;4990942;28;20236;-69
2023/03/19 08:41:24;;;;;;;1.60;1.50;;;19.50;51.60;;;;;;4991461;28;20193;-68
2023/03/19 08:43:50;;;;;;;1.67;1.58;;;19.50;51.60;;;;;;5007425;28;20220;-69
2023/03/19 08:46:16;;;;;;;1.70;1.45;;;19.50;51.60;;;;;;4999574;28;20555;-70
2023/03/19 08:48:43;;;;;;;3.90;1.90;;;19.50;51.50;;;;;;4977009;28;20280;-70
2023/03/19 08:51:10;;;;;;;2.55;1.60;;;19.50;51.50;;;;;;5007095;28;20189;-70
2023/03/19 08:53:37;;;;;;;1.80;1.70;;;19.50;51.70;;;;;;4986201;28;20243;-70
2023/03/19 08:56:06;;;;;;;1.35;1.25;;;19.50;51.60;;;;;;5008294;28;20220;-71
2023/03/19 08:58:33;;;;;;;2.47;1.95;;;19.50;51.60;;;;;;4975315;28;20262;-70
2023/03/19 09:01:09;;;;;;;1.83;1.73;;;19.50;51.60;;;;;;5005139;28;20199;-70
2023/03/19 09:03:36;;;;;;;1.83;1.50;;;19.50;51.60;;;;;;5003653;28;20218;-71
2023/03/19 09:06:07;;;;;;;1.58;1.48;;;19.50;51.60;;;;;;5001708;28;20225;-70
2023/03/19 09:08:35;;;;;;;1.90;1.60;;;19.50;51.60;;;;;;4975206;28;20208;-71
2023/03/19 09:11:01;;;;;;;1.60;1.50;;;19.50;51.60;;;;;;4991152;28;20216;-71
2023/03/19 09:13:26;;;;;;;1.58;1.48;;;19.50;51.60;;;;;;4992497;28;20212;-70
2023/03/19 09:15:52;;;;;;;1.60;1.50;;;19.60;51.70;;;;;;5007569;28;20189;-70
2023/03/19 09:18:27;;;;;;;1.17;1.15;;;19.60;51.70;;;;;;4999894;28;20192;-70
2023/03/19 09:20:54;;;;;;;1.85;1.40;;;19.60;51.70;;;;;;5007907;28;20184;-70
2023/03/19 09:23:20;;;;;;;3.50;1.80;;;19.60;51.60;;;;;;4988529;28;20221;-71
2023/03/19 09:25:47;;;;;;;1.98;1.40;;;19.60;51.60;;;;;;4989846;28;20657;-71
2023/03/19 09:28:13;;;;;;;1.80;1.40;;;19.60;51.60;;;;;;4978547;28;20181;-71
2023/03/19 09:30:38;;;;;;;1.70;1.60;;;19.60;51.60;;;;;;5011410;28;20243;-71
2023/03/19 09:33:05;;;;;;;1.55;1.45;;;19.60;51.60;;;;;;5011321;28;20664;-70
2023/03/19 09:35:32;;;;;;;1.50;1.40;;;19.60;51.60;;;;;;4995171;28;20716;-71
2023/03/19 09:38:00;;;;;;;2.75;1.25;;;19.60;51.60;;;;;;5010650;28;20193;-70
2023/03/19 09:40:37;;;;;;;3.08;1.63;;;19.60;51.60;;;;;;4994756;28;20629;-70
2023/03/19 09:43:45;;;;;;;1.45;1.35;;;19.60;51.60;;;;;;5010896;28;20220;-70
2023/03/19 09:46:22;;;;;;;1.60;1.50;;;19.60;51.70;;;;;;4994904;28;20324;-71
2023/03/19 09:49:03;;;;;;;1.60;1.45;;;19.60;51.60;;;;;;5010742;28;20216;-70
2023/03/19 09:51:48;;;;;;;2.00;1.55;;;19.60;51.70;;;;;;5011029;28;20204;-71
2023/03/19 09:54:29;;;;;;;1.73;1.48;;;19.60;51.70;;;;;;4978306;28;20200;-70
2023/03/19 09:56:55;;;;;;;2.00;1.52;;;19.60;51.70;;;;;;5010784;28;20193;-70
2023/03/19 09:59:23;;;;;;;2.38;1.40;;;19.60;51.60;;;;;;4991180;28;20224;-72
2023/03/19 10:02:08;;;;;;;2.58;1.50;;;19.60;51.60;;;;;;4991545;28;20189;-70
2023/03/19 10:05:05;;;;;;;2.47;1.40;;;19.60;51.60;;;;;;4988404;28;20208;-72
2023/03/19 10:07:41;;;;;;;3.72;1.40;;;19.60;51.60;;;;;;4988438;28;20212;-70
2023/03/19 10:10:58;;;;;;;1.58;1.48;;;19.60;51.70;;;;;;4993140;28;20240;-70
2023/03/19 10:13:40;;;;;;;2.28;1.50;;;19.70;51.70;;;;;;4994550;28;20703;-70
2023/03/19 10:16:20;;;;;;;4.35;1.63;;;19.60;51.60;;;;;;4994299;28;20189;-70
2023/03/19 10:18:50;;;;;;;2.03;1.40;;;19.70;51.70;;;;;;5010370;28;20215;-70
2023/03/19 10:21:30;;;;;;;4.10;1.70;;;19.70;52.20;;;;;;5010596;28;20185;-70
2023/03/19 10:24:12;;;;;;;3.03;1.40;;;19.70;52.20;;;;;;4990706;28;20215;-70
2023/03/19 10:26:38;;;;;;;3.08;1.95;;;19.70;52.20;;;;;;5004747;28;20189;-71
2023/03/19 10:29:13;;;;;;;5.35;1.77;;;19.70;52.40;;;;;;5010267;28;20216;-70
2023/03/19 10:32:04;;;;;;;3.17;1.80;;;19.70;52.50;;;;;;4991161;28;20260;-70
2023/03/19 10:34:41;;;;;;;2.40;1.33;;;19.70;52.50;;;;;;4993918;28;20189;-69
2023/03/19 10:37:21;;;;;;;2.25;1.70;;;19.70;52.40;;;;;;4993679;28;20185;-69
2023/03/19 10:39:50;;;;;;;3.08;1.80;;;19.70;52.40;;;;;;5038266;22;20311;-71
2023/03/19 10:43:10;;;;;;;6.30;1.92;;;19.70;52.50;;;;;;5008379;28;20234;-72
2023/03/19 10:45:36;;;;;;;8.68;1.90;;;19.70;53.20;;;;;;5001241;28;20197;-72
2023/03/19 10:48:04;;;;;;;3.50;2.10;;;19.80;54.90;;;;;;4991586;28;20185;-72
2023/03/19 10:50:59;;;;;;;5.90;2.15;;;19.80;55.80;;;;;;4985632;28;20213;-72
2023/03/19 10:53:35;;;;;;;6.60;2.00;;;19.80;56.20;;;;;;4972639;28;20201;-72
2023/03/19 10:56:18;;;;;;;4.38;2.08;;;19.90;56.40;;;;;;4977986;28;20196;-72
2023/03/19 10:59:18;;;;;;;6.15;2.00;;;19.90;56.50;;;;;;4971053;28;20308;-72
2023/03/19 11:01:45;;;;;;;3.50;1.85;;;19.90;56.60;;;;;;4985398;28;20196;-72
2023/03/19 11:04:22;;;;;;;2.75;1.65;;;19.90;56.60;;;;;;4991800;28;20227;-72
2023/03/19 11:07:08;;;;;;;10.00;2.42;;;19.90;56.60;;;;;;5000301;28;20189;-72
2023/03/19 11:09:41;;;;;;;7.55;2.28;;;19.90;56.70;;;;;;4976897;28;20213;-72
2023/03/19 11:12:23;;;;;;;6.97;2.17;;;20.00;56.70;;;;;;4990737;28;20665;-72
2023/03/19 11:14:56;;;;;;;4.43;2.03;;;19.90;56.80;;;;;;4988453;28;20236;-71
2023/03/19 11:17:40;;;;;;;4.82;2.10;;;19.90;56.70;;;;;;4974845;28;20243;-71
2023/03/19 11:20:31;;;;;;;8.07;2.42;;;20.00;56.50;;;;;;4979433;28;20205;-71
2023/03/19 11:23:02;;;;;;;4.63;2.00;;;20.00;56.70;;;;;;4985434;28;20299;-72
2023/03/19 11:25:35;;;;;;;4.80;1.90;;;20.00;56.80;;;;;;4989104;28;20190;-72
2023/03/19 11:28:15;;;;;;;4.22;1.58;;;20.00;56.80;;;;;;5012603;28;20663;-72
2023/03/19 11:30:50;;;;;;;5.38;1.80;;;20.00;56.90;;;;;;4991153;28;20199;-72
2023/03/19 11:33:53;;;;;;;4.95;1.73;;;20.00;56.80;;;;;;5001406;28;20283;-72
2023/03/19 11:36:32;;;;;;;7.22;1.80;;;20.00;56.80;;;;;;4977695;28;20208;-72
2023/03/19 11:39:27;;;;;;;4.60;2.05;;;20.00;56.80;;;;;;4990178;28;20208;-72
2023/03/19 11:42:24;;;;;;;3.45;1.70;;;20.00;56.90;;;;;;4965048;28;20186;-72
2023/03/19 11:44:55;;;;;;;9.38;2.10;;;20.00;56.80;;;;;;4991009;28;20193;-72
2023/03/19 11:47:44;;;;;;;5.93;1.60;;;20.00;56.80;;;;;;4981165;28;20225;-72
2023/03/19 11:50:24;;;;;;;2.90;1.60;;;20.00;56.70;;;;;;4988274;28;20220;-72
2023/03/19 11:53:23;;;;;;;5.25;2.22;;;20.10;56.80;;;;;;4988724;28;20228;-72
2023/03/19 11:56:01;;;;;;;2.55;1.80;;;20.10;56.70;;;;;;5014245;28;20288;-72
2023/03/19 11:58:41;;;;;;;4.43;1.88;;;20.00;56.60;;;;;;4997828;28;20201;-71
2023/03/19 12:01:33;;;;;;;5.30;1.60;;;20.00;56.80;;;;;;4980112;28;20221;-72
2023/03/19 12:04:02;;;;;;;5.32;1.85;;;20.00;56.70;;;;;;5008014;28;20231;-72
2023/03/19 12:06:35;;;;;;;3.08;1.75;;;20.10;56.70;;;;;;4990538;28;20215;-72
2023/03/19 12:09:12;;;;;;;4.10;1.90;;;20.10;56.70;;;;;;4982643;28;20205;-72
2023/03/19 12:11:53;;;;;;;8.93;2.30;;;20.00;56.60;;;;;;5001366;28;20190;-72
2023/03/19 12:14:29;;;;;;;4.13;1.80;;;20.10;56.80;;;;;;4973797;28;20190;-72
2023/03/19 12:17:40;;;;;;;4.32;1.70;;;20.10;56.80;;;;;;4989824;28;20267;-72
2023/03/19 12:20:37;;;;;;;4.30;1.60;;;20.10;56.80;;;;;;5007029;28;20315;-72
2023/03/19 12:23:09;;;;;;;3.20;1.45;;;20.00;56.60;;;;;;4995465;28;20229;-72
2023/03/19 12:26:03;;;;;;;5.57;1.80;;;20.10;56.60;;;;;;4990190;28;20208;-72
2023/03/19 12:28:51;;;;;;;2.33;1.65;;;20.10;56.60;;;;;;4994591;28;20252;-71
2023/03/19 12:31:44;;;;;;;3.92;1.67;;;20.10;56.70;;;;;;4987289;28;20189;-72
2023/03/19 12:34:51;;;;;;;2.58;1.67;;;20.10;56.60;;;;;;4977859;28;20201;-72
2023/03/19 12:37:28;;;;;;;4.15;1.85;;;20.10;56.50;;;;;;4984162;28;20197;-72
2023/03/19 12:40:27;;;;;;;1.88;1.42;;;20.10;56.60;;;;;;4978802;28;20216;-72
2023/03/19 12:43:01;;;;;;;3.10;1.70;;;20.10;56.50;;;;;;4974787;28;20709;-72
2023/03/19 12:45:41;;;;;;;3.65;1.85;;;20.10;56.60;;;;;;4986821;28;20200;-72
2023/03/19 12:48:30;;;;;;;4.18;1.73;;;20.00;56.60;;;;;;4984849;28;20181;-72
2023/03/19 12:51:05;;;;;;;3.65;1.48;;;20.00;56.50;;;;;;4978017;28;20197;-72
2023/03/19 12:54:38;;;;;;;4.35;1.60;;;20.00;56.40;;;;;;5013447;28;20294;-72
2023/03/19 12:57:20;;;;;;;3.53;1.77;;;20.00;56.50;;;;;;4914928;29;20205;-73
2023/03/19 13:00:20;;;;;;;3.30;1.77;;;20.00;56.50;;;;;;5001239;28;20272;-72
2023/03/19 13:02:59;;;;;;;5.32;1.52;;;20.00;56.40;;;;;;4986364;28;20256;-72
2023/03/19 13:05:37;;;;;;;3.83;1.38;;;20.00;56.40;;;;;;4984854;28;20208;-72
2023/03/19 13:08:28;;;;;;;2.17;1.35;;;20.00;56.40;;;;;;4983885;28;20184;-72
2023/03/19 13:10:56;;;;;;;2.55;1.67;;;20.00;56.40;;;;;;4987777;28;20184;-72
2023/03/19 13:13:45;;;;;;;3.95;1.60;;;20.00;56.40;;;;;;4984484;28;20200;-72